createdAt,value
2022-12-17T00:03:07.783Z,-1.6
2022-12-17T00:08:07.749Z,-1.5
2022-12-17T00:13:07.664Z,-1.5
2022-12-17T00:18:07.759Z,-1.6
2022-12-17T00:23:07.679Z,-1.6
2022-12-17T00:28:07.753Z,-1.6
2022-12-17T00:33:07.677Z,-1.6
2022-12-17T00:38:07.748Z,-1.6
2022-12-17T00:43:07.668Z,-1.7
2022-12-17T00:48:07.739Z,-1.8
2022-12-17T00:53:07.673Z,-1.8
2022-12-17T00:58:07.748Z,-1.9
2022-12-17T01:03:07.751Z,-1.9
2022-12-17T01:08:07.746Z,-1.9
2022-12-17T01:13:07.677Z,-1.9
2022-12-17T01:18:07.742Z,-1.9
2022-12-17T01:23:07.684Z,-2.0
2022-12-17T01:28:07.746Z,-2.1
2022-12-17T01:33:07.666Z,-2.0
2022-12-17T01:38:07.743Z,-2.0
2022-12-17T01:43:07.721Z,-2.0
2022-12-17T01:48:07.743Z,-2.0
2022-12-17T01:53:07.681Z,-2.0
2022-12-17T01:58:07.748Z,-2.1
2022-12-17T02:03:07.767Z,-2.0
2022-12-17T02:08:07.747Z,-2.1
2022-12-17T02:13:07.678Z,-2.3
2022-12-17T02:18:07.744Z,-2.2
2022-12-17T02:23:07.732Z,-2.2
2022-12-17T02:28:07.770Z,-2.0
2022-12-17T02:33:07.690Z,-2.2
2022-12-17T02:38:07.753Z,-2.2
2022-12-17T02:43:07.689Z,-2.2
2022-12-17T02:48:07.786Z,-2.1
2022-12-17T02:53:07.686Z,-2.2
2022-12-17T02:58:07.796Z,-2.2
2022-12-17T03:03:07.717Z,-2.2
2022-12-17T03:08:07.788Z,-2.2
2022-12-17T03:13:07.709Z,-2.0
2022-12-17T03:18:07.756Z,-2.1
2022-12-17T03:23:07.679Z,-2.0
2022-12-17T03:28:07.770Z,-2.0
2022-12-17T03:33:07.691Z,-2.0
2022-12-17T03:38:07.771Z,-2.0
2022-12-17T03:43:07.698Z,-2.0
2022-12-17T03:48:07.756Z,-2.0
2022-12-17T03:53:07.692Z,-2.0
2022-12-17T03:58:07.766Z,-2.0
2022-12-17T04:03:07.728Z,-2.1
2022-12-17T04:08:07.757Z,-2.0
2022-12-17T04:13:07.707Z,-2.0
2022-12-17T04:18:07.766Z,-2.0
2022-12-17T04:23:07.694Z,-2.0
2022-12-17T04:28:07.761Z,-2.0
2022-12-17T04:33:07.693Z,-2.0
2022-12-17T04:38:07.811Z,-2.0
2022-12-17T04:43:07.692Z,-2.1
2022-12-17T04:48:07.774Z,-2.1
2022-12-17T04:53:07.695Z,-2.0
2022-12-17T04:58:07.781Z,-2.0
2022-12-17T05:03:07.712Z,-2.1
2022-12-17T05:08:07.775Z,-2.1
2022-12-17T05:13:07.703Z,-2.1
2022-12-17T05:18:07.781Z,-2.0
2022-12-17T05:23:07.700Z,-2.0
2022-12-17T05:28:07.787Z,-2.0
2022-12-17T05:33:07.693Z,-2.0
2022-12-17T05:38:07.775Z,-2.1
2022-12-17T05:43:07.753Z,-2.2
2022-12-17T05:48:07.786Z,-2.2
2022-12-17T05:53:07.695Z,-2.2
2022-12-17T05:58:07.779Z,-2.1
2022-12-17T06:03:07.875Z,-2.2
2022-12-17T06:08:07.775Z,-2.2
2022-12-17T06:13:07.693Z,-2.1
2022-12-17T06:18:10.065Z,-2.0
2022-12-17T06:23:07.695Z,-2.0
2022-12-17T06:28:07.785Z,-2.0
2022-12-17T06:33:07.695Z,-2.0
2022-12-17T06:38:07.830Z,-2.2
2022-12-17T06:43:07.698Z,-2.2
2022-12-17T06:48:07.802Z,-2.2
2022-12-17T06:53:07.695Z,-2.2
2022-12-17T06:58:07.825Z,-1.9
2022-12-17T07:03:13.033Z,-1.8
2022-12-17T07:08:07.800Z,-1.6
2022-12-17T07:13:07.700Z,-1.6
2022-12-17T07:18:07.830Z,-1.6
2022-12-17T07:23:07.729Z,-1.5
2022-12-17T07:28:07.716Z,-1.5
2022-12-17T07:33:07.726Z,-1.5
2022-12-17T07:38:07.833Z,-1.6
2022-12-17T07:43:07.717Z,-1.5
2022-12-17T07:48:07.798Z,-1.4
2022-12-17T07:53:07.720Z,-1.4
2022-12-17T07:58:07.797Z,-1.4
2022-12-17T08:03:07.843Z,-1.3
2022-12-17T08:08:07.795Z,-1.4
2022-12-17T08:13:12.474Z,-1.3
2022-12-17T08:18:07.717Z,-1.3
2022-12-17T08:23:07.723Z,-1.2
2022-12-17T08:28:15.795Z,-1.0
2022-12-17T08:33:07.726Z,-0.8
2022-12-17T08:38:07.798Z,-0.6
2022-12-17T08:43:07.705Z,-0.5
2022-12-17T08:48:07.715Z,-0.5
2022-12-17T08:53:07.760Z,-0.3
2022-12-17T08:58:07.802Z,-0.3
2022-12-17T09:03:07.809Z,-0.3
2022-12-17T09:08:07.723Z,-0.1
2022-12-17T09:13:07.758Z,-0.1
2022-12-17T09:18:07.800Z,0.0
2022-12-17T09:23:07.707Z,-0.1
2022-12-17T09:28:07.799Z,0.0
2022-12-17T09:33:07.726Z,0.0
2022-12-17T09:38:07.799Z,0.0
2022-12-17T09:43:07.728Z,0.0
2022-12-17T09:48:07.806Z,0.2
2022-12-17T09:53:07.702Z,0.0
2022-12-17T09:58:07.816Z,0.0
2022-12-17T10:03:07.777Z,-0.0
2022-12-17T10:08:07.797Z,-0.1
2022-12-17T10:13:07.763Z,-0.0
2022-12-17T10:18:07.799Z,-0.1
2022-12-17T10:23:07.698Z,-0.0
2022-12-17T10:28:07.798Z,0.0
2022-12-17T10:33:07.723Z,0.1
2022-12-17T10:38:07.802Z,0.2
2022-12-17T10:43:07.705Z,0.0
2022-12-17T10:48:07.791Z,0.1
2022-12-17T10:53:07.720Z,0.0
2022-12-17T10:58:07.720Z,0.0
2022-12-17T11:03:07.799Z,0.0
2022-12-17T11:08:07.719Z,0.2
2022-12-17T11:13:07.721Z,0.2
2022-12-17T11:18:11.388Z,0.2
2022-12-17T11:23:07.703Z,0.3
2022-12-17T11:28:07.838Z,0.3
2022-12-17T11:33:07.721Z,0.4
2022-12-17T11:38:07.733Z,0.3
2022-12-17T11:43:07.751Z,0.4
2022-12-17T11:48:07.796Z,0.4
2022-12-17T11:53:07.719Z,0.4
2022-12-17T11:58:07.801Z,0.4
2022-12-17T12:03:07.794Z,0.5
2022-12-17T12:08:07.803Z,0.5
2022-12-17T12:13:07.737Z,0.5
2022-12-17T12:18:07.860Z,0.5
2022-12-17T12:23:07.735Z,0.6
2022-12-17T12:28:07.828Z,0.7
2022-12-17T12:33:10.145Z,0.7
2022-12-17T12:38:07.739Z,0.6
2022-12-17T12:43:07.741Z,0.6
2022-12-17T12:48:07.829Z,0.7
2022-12-17T12:53:07.731Z,0.7
2022-12-17T12:58:07.741Z,0.7
2022-12-17T13:03:07.827Z,0.8
2022-12-17T13:08:07.748Z,0.9
2022-12-17T13:13:07.731Z,1.0
2022-12-17T13:18:07.828Z,1.0
2022-12-17T13:23:07.734Z,1.0
2022-12-17T13:28:07.752Z,1.0
2022-12-17T13:33:07.736Z,1.2
2022-12-17T13:38:07.831Z,1.1
2022-12-17T13:43:07.739Z,1.2
2022-12-17T13:48:07.829Z,1.1
2022-12-17T13:53:07.761Z,1.2
2022-12-17T13:58:07.825Z,1.1
2022-12-17T14:03:07.798Z,1.1
2022-12-17T14:08:07.824Z,1.2
2022-12-17T14:13:07.740Z,1.2
2022-12-17T14:18:07.825Z,1.2
2022-12-17T14:23:07.745Z,1.2
2022-12-17T14:28:07.823Z,1.2
2022-12-17T14:33:07.746Z,1.2
2022-12-17T14:38:07.828Z,1.2
2022-12-17T14:43:07.730Z,1.4
2022-12-17T14:48:07.823Z,1.4
2022-12-17T14:53:07.728Z,1.5
2022-12-17T14:58:07.824Z,1.5
2022-12-17T15:03:07.920Z,1.5
2022-12-17T15:08:07.822Z,1.4
2022-12-17T15:13:07.763Z,1.5
2022-12-17T15:18:07.865Z,1.5
2022-12-17T15:23:07.741Z,1.5
2022-12-17T15:28:07.751Z,1.5
2022-12-17T15:33:07.748Z,1.5
2022-12-17T15:38:07.837Z,1.5
2022-12-17T15:43:07.740Z,1.6
2022-12-17T15:48:07.839Z,1.7
2022-12-17T15:53:07.734Z,1.7
2022-12-17T15:58:07.747Z,1.7
2022-12-17T16:03:07.922Z,1.8
2022-12-17T16:08:07.846Z,1.9
2022-12-17T16:13:07.728Z,1.9
2022-12-17T16:18:07.876Z,1.9
2022-12-17T16:23:07.747Z,1.9
2022-12-17T16:28:07.849Z,1.9
2022-12-17T16:33:07.746Z,1.9
2022-12-17T16:38:07.754Z,1.8
2022-12-17T16:43:07.733Z,1.7
2022-12-17T16:48:07.845Z,1.7
2022-12-17T16:53:07.749Z,1.7
2022-12-17T16:58:07.779Z,1.7
2022-12-17T17:03:07.929Z,1.6
2022-12-17T17:08:07.899Z,1.5
2022-12-17T17:13:07.759Z,1.5
2022-12-17T17:18:07.803Z,1.5
2022-12-17T17:23:07.740Z,1.5
2022-12-17T17:28:07.780Z,1.5
2022-12-17T17:33:07.735Z,1.5
2022-12-17T17:38:07.770Z,1.4
2022-12-17T17:43:07.755Z,1.4
2022-12-17T17:48:07.769Z,1.5
2022-12-17T17:53:07.754Z,1.4
2022-12-17T17:58:07.771Z,1.4
2022-12-17T18:03:07.946Z,1.4
2022-12-17T18:08:07.888Z,1.4
2022-12-17T18:13:07.754Z,1.4
2022-12-17T18:18:14.205Z,1.3
2022-12-17T18:23:07.744Z,1.3
2022-12-17T18:28:07.873Z,1.3
2022-12-17T18:33:07.776Z,1.3
2022-12-17T18:38:07.800Z,1.4
2022-12-17T18:43:07.750Z,1.4
2022-12-17T18:48:07.803Z,1.5
2022-12-17T18:53:07.737Z,1.5
2022-12-17T18:58:07.803Z,1.5
2022-12-17T19:03:07.886Z,1.5
2022-12-17T19:08:07.890Z,1.5
2022-12-17T19:13:07.771Z,1.5
2022-12-17T19:18:07.873Z,1.6
2022-12-17T19:23:07.758Z,1.6
2022-12-17T19:28:07.776Z,1.5
2022-12-17T19:33:07.764Z,1.6
2022-12-17T19:38:07.862Z,1.6
2022-12-17T19:43:07.757Z,1.6
2022-12-17T19:48:07.852Z,1.6
2022-12-17T19:53:07.736Z,1.6
2022-12-17T19:58:07.801Z,1.6
2022-12-17T20:03:07.922Z,1.6
2022-12-17T20:08:07.773Z,1.5
2022-12-17T20:13:07.764Z,1.6
2022-12-17T20:18:07.851Z,1.6
2022-12-17T20:23:07.767Z,1.5
2022-12-17T20:28:07.850Z,1.5
2022-12-17T20:33:07.767Z,1.5
2022-12-17T20:38:07.893Z,1.5
2022-12-17T20:43:07.873Z,1.5
2022-12-17T20:48:07.854Z,1.5
2022-12-17T20:53:07.755Z,1.5
2022-12-17T20:58:07.850Z,1.5
2022-12-17T21:03:07.877Z,1.5
2022-12-17T21:08:07.775Z,1.5
2022-12-17T21:13:07.767Z,1.5
2022-12-17T21:18:07.775Z,1.5
2022-12-17T21:23:07.743Z,1.5
2022-12-17T21:28:07.772Z,1.5
2022-12-17T21:33:07.760Z,1.5
2022-12-17T21:38:07.794Z,1.4
2022-12-17T21:43:07.766Z,1.4
2022-12-17T21:48:14.903Z,1.4
2022-12-17T21:53:07.765Z,1.3
2022-12-17T21:58:07.801Z,1.2
2022-12-17T22:03:07.756Z,1.1
2022-12-17T22:08:07.856Z,1.0
2022-12-17T22:13:07.769Z,1.0
2022-12-17T22:18:07.794Z,0.9
2022-12-17T22:23:07.834Z,0.9
2022-12-17T22:28:07.774Z,0.9
2022-12-17T22:33:17.472Z,0.9
2022-12-17T22:40:01.340Z,0.9
2022-12-17T22:44:35.843Z,0.9
2022-12-17T22:48:07.853Z,0.9
2022-12-17T22:53:07.784Z,0.9
2022-12-17T22:58:07.777Z,0.8
2022-12-17T23:03:07.996Z,0.8
2022-12-17T23:08:07.857Z,0.7
2022-12-17T23:13:07.770Z,0.7
2022-12-17T23:18:07.858Z,0.7
2022-12-17T23:23:07.769Z,0.7
2022-12-17T23:28:07.859Z,0.6
2022-12-17T23:33:07.769Z,0.5
2022-12-17T23:38:07.787Z,0.5
2022-12-17T23:43:08.922Z,0.5
2022-12-17T23:48:07.799Z,0.5
2022-12-17T23:53:07.762Z,0.4
2022-12-17T23:58:07.862Z,0.4
